Epworth, Kentucky
Current Conditions -  °F | °C
As of 9:15 AM on Monday 22 Dec 2014 (Local Time) from KFGX Reporting Station
Overcast Overcast  
Wind Chill: 30°   Ceiling: 4200
Heat Index: 34°   Visibility: 10mi
Dew Point: 31°   Wind: 5mph
Humidity: 88%   Direction: 110°ESE
Pressure: 30.02"   Gusts: NA
Location:  38.5845°N, 83.5468°W
Report Text: KFGX 221415Z AUTO 11004KT 10SM OVC042 01/00 A3002 RMK AO2 T00131005
Loading
Personal Weather Stations






























Interactive Weather Map New forecast layout! Learn more

10-Day Weather Forecast

Advertisements
Track Severe Weather on mobile